sensor_id;sensor_type;location;lat;lon;timestamp;P1;durP1;ratioP1;P2;durP2;ratioP2
17592;SDS011;8915;51.760;14.300;2023-12-20T00:00:57;7.70;;;5.73;;
17592;SDS011;8915;51.760;14.300;2023-12-20T00:03:23;7.17;;;5.23;;
17592;SDS011;8915;51.760;14.300;2023-12-20T00:05:50;8.43;;;5.73;;
17592;SDS011;8915;51.760;14.300;2023-12-20T00:08:16;6.67;;;5.37;;
17592;SDS011;8915;51.760;14.300;2023-12-20T00:10:43;7.47;;;5.37;;
17592;SDS011;8915;51.760;14.300;2023-12-20T00:13:11;6.73;;;5.07;;
17592;SDS011;8915;51.760;14.300;2023-12-20T00:15:37;8.27;;;5.00;;
17592;SDS011;8915;51.760;14.300;2023-12-20T00:18:04;7.13;;;5.10;;
17592;SDS011;8915;51.760;14.300;2023-12-20T00:20:31;6.83;;;5.07;;
17592;SDS011;8915;51.760;14.300;2023-12-20T00:22:57;5.80;;;4.53;;
17592;SDS011;8915;51.760;14.300;2023-12-20T00:25:23;7.13;;;5.00;;
17592;SDS011;8915;51.760;14.300;2023-12-20T00:27:53;6.23;;;4.53;;
17592;SDS011;8915;51.760;14.300;2023-12-20T00:30:20;6.07;;;4.73;;
17592;SDS011;8915;51.760;14.300;2023-12-20T00:32:52;5.67;;;4.33;;
17592;SDS011;8915;51.760;14.300;2023-12-20T00:35:19;5.77;;;4.43;;
17592;SDS011;8915;51.760;14.300;2023-12-20T00:37:45;4.80;;;4.00;;
17592;SDS011;8915;51.760;14.300;2023-12-20T00:40:11;5.67;;;4.37;;
17592;SDS011;8915;51.760;14.300;2023-12-20T00:42:38;5.50;;;3.83;;
17592;SDS011;8915;51.760;14.300;2023-12-20T00:45:05;4.40;;;3.50;;
17592;SDS011;8915;51.760;14.300;2023-12-20T00:47:33;5.30;;;3.83;;
17592;SDS011;8915;51.760;14.300;2023-12-20T00:49:59;5.10;;;3.83;;
17592;SDS011;8915;51.760;14.300;2023-12-20T00:52:26;3.57;;;2.97;;
17592;SDS011;8915;51.760;14.300;2023-12-20T00:54:55;5.60;;;3.77;;
17592;SDS011;8915;51.760;14.300;2023-12-20T00:57:21;5.07;;;3.70;;
17592;SDS011;8915;51.760;14.300;2023-12-20T00:59:48;5.07;;;3.47;;
17592;SDS011;8915;51.760;14.300;2023-12-20T01:02:14;4.47;;;3.50;;
17592;SDS011;8915;51.760;14.300;2023-12-20T01:04:42;3.73;;;3.30;;
17592;SDS011;8915;51.760;14.300;2023-12-20T01:07:09;4.73;;;3.63;;
17592;SDS011;8915;51.760;14.300;2023-12-20T01:09:35;3.40;;;2.83;;
17592;SDS011;8915;51.760;14.300;2023-12-20T01:12:01;3.77;;;3.03;;
17592;SDS011;8915;51.760;14.300;2023-12-20T01:14:27;4.17;;;3.33;;
17592;SDS011;8915;51.760;14.300;2023-12-20T01:16:53;3.70;;;2.73;;
17592;SDS011;8915;51.760;14.300;2023-12-20T01:19:22;4.87;;;3.17;;
17592;SDS011;8915;51.760;14.300;2023-12-20T01:21:51;4.07;;;3.23;;
17592;SDS011;8915;51.760;14.300;2023-12-20T01:24:17;3.67;;;2.80;;
17592;SDS011;8915;51.760;14.300;2023-12-20T01:26:44;3.50;;;2.97;;
17592;SDS011;8915;51.760;14.300;2023-12-20T01:29:10;3.77;;;2.90;;
17592;SDS011;8915;51.760;14.300;2023-12-20T01:31:37;3.03;;;2.67;;
17592;SDS011;8915;51.760;14.300;2023-12-20T01:34:03;5.03;;;3.20;;
17592;SDS011;8915;51.760;14.300;2023-12-20T01:36:30;3.10;;;2.70;;
17592;SDS011;8915;51.760;14.300;2023-12-20T01:38:58;5.77;;;3.10;;
17592;SDS011;8915;51.760;14.300;2023-12-20T01:41:25;2.90;;;2.60;;
17592;SDS011;8915;51.760;14.300;2023-12-20T01:43:51;4.13;;;3.03;;
17592;SDS011;8915;51.760;14.300;2023-12-20T01:46:18;4.13;;;3.03;;
17592;SDS011;8915;51.760;14.300;2023-12-20T01:48:45;3.10;;;2.70;;
17592;SDS011;8915;51.760;14.300;2023-12-20T01:51:13;3.40;;;2.87;;
17592;SDS011;8915;51.760;14.300;2023-12-20T01:53:39;3.97;;;2.87;;
17592;SDS011;8915;51.760;14.300;2023-12-20T01:56:08;4.63;;;3.20;;
17592;SDS011;8915;51.760;14.300;2023-12-20T01:58:36;4.53;;;3.40;;
17592;SDS011;8915;51.760;14.300;2023-12-20T02:01:05;4.90;;;3.27;;
17592;SDS011;8915;51.760;14.300;2023-12-20T02:03:31;3.90;;;3.23;;
17592;SDS011;8915;51.760;14.300;2023-12-20T02:05:58;3.70;;;3.10;;
17592;SDS011;8915;51.760;14.300;2023-12-20T02:08:27;3.90;;;3.07;;
17592;SDS011;8915;51.760;14.300;2023-12-20T02:10:54;3.77;;;3.03;;
17592;SDS011;8915;51.760;14.300;2023-12-20T02:13:23;3.37;;;2.90;;
17592;SDS011;8915;51.760;14.300;2023-12-20T02:15:50;4.47;;;3.33;;
17592;SDS011;8915;51.760;14.300;2023-12-20T02:18:16;4.37;;;3.30;;
17592;SDS011;8915;51.760;14.300;2023-12-20T02:20:43;3.87;;;2.83;;
17592;SDS011;8915;51.760;14.300;2023-12-20T02:23:11;3.77;;;3.20;;
17592;SDS011;8915;51.760;14.300;2023-12-20T02:25:37;4.20;;;3.20;;
17592;SDS011;8915;51.760;14.300;2023-12-20T02:28:03;5.47;;;3.83;;
17592;SDS011;8915;51.760;14.300;2023-12-20T02:30:31;3.83;;;2.97;;
17592;SDS011;8915;51.760;14.300;2023-12-20T02:32:58;3.93;;;3.13;;
17592;SDS011;8915;51.760;14.300;2023-12-20T02:35:29;3.77;;;2.80;;
17592;SDS011;8915;51.760;14.300;2023-12-20T02:37:56;3.03;;;2.57;;
17592;SDS011;8915;51.760;14.300;2023-12-20T02:40:26;3.63;;;2.87;;
17592;SDS011;8915;51.760;14.300;2023-12-20T02:42:52;4.60;;;3.27;;
17592;SDS011;8915;51.760;14.300;2023-12-20T02:45:19;3.43;;;2.90;;
17592;SDS011;8915;51.760;14.300;2023-12-20T02:47:45;4.47;;;3.10;;
17592;SDS011;8915;51.760;14.300;2023-12-20T02:50:11;4.03;;;3.63;;
17592;SDS011;8915;51.760;14.300;2023-12-20T02:52:38;3.17;;;2.73;;
17592;SDS011;8915;51.760;14.300;2023-12-20T02:55:04;4.50;;;2.97;;
17592;SDS011;8915;51.760;14.300;2023-12-20T02:57:32;3.97;;;2.83;;
17592;SDS011;8915;51.760;14.300;2023-12-20T03:00:01;4.63;;;3.00;;
17592;SDS011;8915;51.760;14.300;2023-12-20T03:02:29;3.30;;;2.90;;
17592;SDS011;8915;51.760;14.300;2023-12-20T03:04:55;2.57;;;2.37;;
17592;SDS011;8915;51.760;14.300;2023-12-20T03:07:22;3.70;;;3.13;;
17592;SDS011;8915;51.760;14.300;2023-12-20T03:09:48;4.67;;;3.23;;
17592;SDS011;8915;51.760;14.300;2023-12-20T03:12:14;3.83;;;3.17;;
17592;SDS011;8915;51.760;14.300;2023-12-20T03:14:43;3.80;;;2.83;;
17592;SDS011;8915;51.760;14.300;2023-12-20T03:17:09;4.20;;;3.30;;
17592;SDS011;8915;51.760;14.300;2023-12-20T03:19:35;4.77;;;3.00;;
17592;SDS011;8915;51.760;14.300;2023-12-20T03:22:02;4.30;;;3.33;;
17592;SDS011;8915;51.760;14.300;2023-12-20T03:24:28;5.17;;;3.20;;
17592;SDS011;8915;51.760;14.300;2023-12-20T03:26:55;5.47;;;3.17;;
17592;SDS011;8915;51.760;14.300;2023-12-20T03:29:21;4.30;;;3.40;;
17592;SDS011;8915;51.760;14.300;2023-12-20T03:31:49;4.10;;;3.00;;
17592;SDS011;8915;51.760;14.300;2023-12-20T03:34:15;3.57;;;2.90;;
17592;SDS011;8915;51.760;14.300;2023-12-20T03:36:41;3.53;;;2.97;;
17592;SDS011;8915;51.760;14.300;2023-12-20T03:39:08;3.77;;;3.17;;
17592;SDS011;8915;51.760;14.300;2023-12-20T03:41:35;4.93;;;3.50;;
17592;SDS011;8915;51.760;14.300;2023-12-20T03:44:01;5.90;;;3.20;;
17592;SDS011;8915;51.760;14.300;2023-12-20T03:46:27;3.43;;;3.00;;
17592;SDS011;8915;51.760;14.300;2023-12-20T03:48:55;4.40;;;3.17;;
17592;SDS011;8915;51.760;14.300;2023-12-20T03:51:21;3.83;;;3.07;;
17592;SDS011;8915;51.760;14.300;2023-12-20T03:53:48;3.70;;;2.93;;
17592;SDS011;8915;51.760;14.300;2023-12-20T03:56:14;3.50;;;3.07;;
17592;SDS011;8915;51.760;14.300;2023-12-20T03:58:40;3.40;;;2.80;;
17592;SDS011;8915;51.760;14.300;2023-12-20T04:01:09;3.43;;;2.83;;
17592;SDS011;8915;51.760;14.300;2023-12-20T04:03:36;4.03;;;3.20;;
17592;SDS011;8915;51.760;14.300;2023-12-20T04:06:03;3.07;;;2.47;;
17592;SDS011;8915;51.760;14.300;2023-12-20T04:08:30;4.27;;;2.80;;
17592;SDS011;8915;51.760;14.300;2023-12-20T04:10:56;3.47;;;3.07;;
17592;SDS011;8915;51.760;14.300;2023-12-20T04:13:23;4.73;;;2.93;;
17592;SDS011;8915;51.760;14.300;2023-12-20T04:15:49;4.07;;;3.00;;
17592;SDS011;8915;51.760;14.300;2023-12-20T04:18:16;4.23;;;3.17;;
17592;SDS011;8915;51.760;14.300;2023-12-20T04:20:43;3.70;;;2.87;;
17592;SDS011;8915;51.760;14.300;2023-12-20T04:23:11;3.57;;;3.13;;
17592;SDS011;8915;51.760;14.300;2023-12-20T04:25:37;4.73;;;3.10;;
17592;SDS011;8915;51.760;14.300;2023-12-20T04:28:03;3.30;;;2.63;;
17592;SDS011;8915;51.760;14.300;2023-12-20T04:30:30;3.63;;;2.63;;
17592;SDS011;8915;51.760;14.300;2023-12-20T04:32:56;3.17;;;2.73;;
17592;SDS011;8915;51.760;14.300;2023-12-20T04:35:23;3.07;;;2.70;;
17592;SDS011;8915;51.760;14.300;2023-12-20T04:37:49;5.10;;;2.47;;
17592;SDS011;8915;51.760;14.300;2023-12-20T04:40:17;3.47;;;2.60;;
17592;SDS011;8915;51.760;14.300;2023-12-20T04:42:43;3.00;;;2.50;;
17592;SDS011;8915;51.760;14.300;2023-12-20T04:45:09;3.20;;;2.63;;
17592;SDS011;8915;51.760;14.300;2023-12-20T04:47:38;4.00;;;2.80;;
17592;SDS011;8915;51.760;14.300;2023-12-20T04:50:05;3.17;;;2.87;;
17592;SDS011;8915;51.760;14.300;2023-12-20T04:52:32;3.27;;;2.70;;
17592;SDS011;8915;51.760;14.300;2023-12-20T04:54:58;3.77;;;2.77;;
17592;SDS011;8915;51.760;14.300;2023-12-20T04:57:26;3.13;;;2.70;;
17592;SDS011;8915;51.760;14.300;2023-12-20T04:59:52;3.53;;;2.50;;
17592;SDS011;8915;51.760;14.300;2023-12-20T05:02:19;3.27;;;2.50;;
17592;SDS011;8915;51.760;14.300;2023-12-20T05:04:45;3.77;;;2.90;;
17592;SDS011;8915;51.760;14.300;2023-12-20T05:07:11;3.30;;;2.67;;
17592;SDS011;8915;51.760;14.300;2023-12-20T05:09:38;3.70;;;2.67;;
17592;SDS011;8915;51.760;14.300;2023-12-20T05:12:04;6.60;;;3.33;;
17592;SDS011;8915;51.760;14.300;2023-12-20T05:14:33;4.40;;;3.13;;
17592;SDS011;8915;51.760;14.300;2023-12-20T05:16:59;4.27;;;2.97;;
17592;SDS011;8915;51.760;14.300;2023-12-20T05:19:25;3.27;;;2.40;;
17592;SDS011;8915;51.760;14.300;2023-12-20T05:21:52;3.40;;;3.10;;
17592;SDS011;8915;51.760;14.300;2023-12-20T05:24:18;3.20;;;2.90;;
17592;SDS011;8915;51.760;14.300;2023-12-20T05:26:45;5.03;;;3.07;;
17592;SDS011;8915;51.760;14.300;2023-12-20T05:29:11;4.27;;;3.33;;
17592;SDS011;8915;51.760;14.300;2023-12-20T05:31:39;3.70;;;3.30;;
17592;SDS011;8915;51.760;14.300;2023-12-20T05:34:05;7.30;;;3.77;;
17592;SDS011;8915;51.760;14.300;2023-12-20T05:36:31;4.70;;;3.40;;
17592;SDS011;8915;51.760;14.300;2023-12-20T05:38:58;3.60;;;2.97;;
17592;SDS011;8915;51.760;14.300;2023-12-20T05:41:24;4.50;;;3.67;;
17592;SDS011;8915;51.760;14.300;2023-12-20T05:43:50;3.63;;;3.10;;
17592;SDS011;8915;51.760;14.300;2023-12-20T05:46:17;5.87;;;3.23;;
17592;SDS011;8915;51.760;14.300;2023-12-20T05:48:45;5.00;;;3.17;;
17592;SDS011;8915;51.760;14.300;2023-12-20T05:51:11;3.60;;;2.80;;
17592;SDS011;8915;51.760;14.300;2023-12-20T05:53:37;5.03;;;2.77;;
17592;SDS011;8915;51.760;14.300;2023-12-20T05:56:04;4.70;;;2.77;;
17592;SDS011;8915;51.760;14.300;2023-12-20T05:58:31;4.07;;;2.70;;
17592;SDS011;8915;51.760;14.300;2023-12-20T06:00:58;4.47;;;2.57;;
17592;SDS011;8915;51.760;14.300;2023-12-20T06:03:24;3.63;;;2.47;;
17592;SDS011;8915;51.760;14.300;2023-12-20T06:05:52;3.10;;;2.73;;
17592;SDS011;8915;51.760;14.300;2023-12-20T06:08:18;4.40;;;2.60;;
17592;SDS011;8915;51.760;14.300;2023-12-20T06:10:44;3.00;;;2.20;;
17592;SDS011;8915;51.760;14.300;2023-12-20T06:13:11;3.13;;;2.47;;
17592;SDS011;8915;51.760;14.300;2023-12-20T06:15:38;5.77;;;2.30;;
17592;SDS011;8915;51.760;14.300;2023-12-20T06:18:05;3.90;;;2.50;;
17592;SDS011;8915;51.760;14.300;2023-12-20T06:20:31;2.80;;;1.87;;
17592;SDS011;8915;51.760;14.300;2023-12-20T06:22:59;4.03;;;2.23;;
17592;SDS011;8915;51.760;14.300;2023-12-20T06:25:25;3.83;;;2.40;;
17592;SDS011;8915;51.760;14.300;2023-12-20T06:27:52;3.43;;;1.80;;
17592;SDS011;8915;51.760;14.300;2023-12-20T06:30:18;3.10;;;2.20;;
17592;SDS011;8915;51.760;14.300;2023-12-20T06:32:44;2.67;;;1.80;;
17592;SDS011;8915;51.760;14.300;2023-12-20T06:35:12;4.37;;;1.90;;
17592;SDS011;8915;51.760;14.300;2023-12-20T06:37:38;2.57;;;1.90;;
17592;SDS011;8915;51.760;14.300;2023-12-20T06:40:09;3.33;;;1.80;;
17592;SDS011;8915;51.760;14.300;2023-12-20T06:42:35;5.83;;;2.03;;
17592;SDS011;8915;51.760;14.300;2023-12-20T06:45:02;5.23;;;2.13;;
17592;SDS011;8915;51.760;14.300;2023-12-20T06:47:29;4.70;;;2.77;;
17592;SDS011;8915;51.760;14.300;2023-12-20T06:49:56;3.30;;;2.40;;
17592;SDS011;8915;51.760;14.300;2023-12-20T06:52:22;3.70;;;2.60;;
17592;SDS011;8915;51.760;14.300;2023-12-20T06:54:48;6.83;;;2.73;;
17592;SDS011;8915;51.760;14.300;2023-12-20T06:57:16;7.37;;;3.13;;
17592;SDS011;8915;51.760;14.300;2023-12-20T06:59:43;4.03;;;3.07;;
17592;SDS011;8915;51.760;14.300;2023-12-20T07:02:10;6.67;;;3.83;;
17592;SDS011;8915;51.760;14.300;2023-12-20T07:04:38;7.47;;;3.57;;
17592;SDS011;8915;51.760;14.300;2023-12-20T07:07:05;6.07;;;3.90;;
17592;SDS011;8915;51.760;14.300;2023-12-20T07:09:32;5.47;;;3.87;;
17592;SDS011;8915;51.760;14.300;2023-12-20T07:11:58;9.23;;;4.70;;
17592;SDS011;8915;51.760;14.300;2023-12-20T07:14:26;7.47;;;4.43;;
17592;SDS011;8915;51.760;14.300;2023-12-20T07:16:52;7.23;;;4.80;;
17592;SDS011;8915;51.760;14.300;2023-12-20T07:19:19;6.60;;;4.50;;
17592;SDS011;8915;51.760;14.300;2023-12-20T07:21:45;6.90;;;4.03;;
17592;SDS011;8915;51.760;14.300;2023-12-20T07:24:11;7.00;;;4.57;;
17592;SDS011;8915;51.760;14.300;2023-12-20T07:26:38;7.33;;;4.30;;
17592;SDS011;8915;51.760;14.300;2023-12-20T07:29:05;6.77;;;4.30;;
17592;SDS011;8915;51.760;14.300;2023-12-20T07:31:33;10.17;;;4.00;;
17592;SDS011;8915;51.760;14.300;2023-12-20T07:33:59;7.87;;;3.73;;
17592;SDS011;8915;51.760;14.300;2023-12-20T07:36:26;12.17;;;4.03;;
17592;SDS011;8915;51.760;14.300;2023-12-20T07:38:52;9.33;;;4.17;;
17592;SDS011;8915;51.760;14.300;2023-12-20T07:41:19;8.77;;;4.20;;
17592;SDS011;8915;51.760;14.300;2023-12-20T07:43:47;12.53;;;4.10;;
17592;SDS011;8915;51.760;14.300;2023-12-20T07:46:13;7.00;;;3.37;;
17592;SDS011;8915;51.760;14.300;2023-12-20T07:48:41;9.50;;;4.93;;
17592;SDS011;8915;51.760;14.300;2023-12-20T07:51:07;11.13;;;3.83;;
17592;SDS011;8915;51.760;14.300;2023-12-20T07:53:34;7.20;;;4.00;;
17592;SDS011;8915;51.760;14.300;2023-12-20T07:56:01;7.93;;;3.57;;
17592;SDS011;8915;51.760;14.300;2023-12-20T07:58:27;8.10;;;3.87;;
17592;SDS011;8915;51.760;14.300;2023-12-20T08:00:55;7.77;;;3.53;;
17592;SDS011;8915;51.760;14.300;2023-12-20T08:03:21;9.73;;;3.63;;
17592;SDS011;8915;51.760;14.300;2023-12-20T08:05:49;7.07;;;3.90;;
17592;SDS011;8915;51.760;14.300;2023-12-20T08:08:15;9.87;;;3.97;;
17592;SDS011;8915;51.760;14.300;2023-12-20T08:10:41;13.43;;;4.43;;
17592;SDS011;8915;51.760;14.300;2023-12-20T08:13:08;45.53;;;14.77;;
17592;SDS011;8915;51.760;14.300;2023-12-20T08:15:34;16.33;;;5.30;;
17592;SDS011;8915;51.760;14.300;2023-12-20T08:18:02;9.50;;;3.90;;
17592;SDS011;8915;51.760;14.300;2023-12-20T08:20:29;9.70;;;3.57;;
17592;SDS011;8915;51.760;14.300;2023-12-20T08:22:56;9.70;;;3.57;;
17592;SDS011;8915;51.760;14.300;2023-12-20T08:25:23;13.73;;;4.53;;
17592;SDS011;8915;51.760;14.300;2023-12-20T08:27:49;10.60;;;4.43;;
17592;SDS011;8915;51.760;14.300;2023-12-20T08:30:15;6.83;;;3.87;;
17592;SDS011;8915;51.760;14.300;2023-12-20T08:32:45;9.93;;;5.13;;
17592;SDS011;8915;51.760;14.300;2023-12-20T08:35:12;16.10;;;4.80;;
17592;SDS011;8915;51.760;14.300;2023-12-20T08:37:38;12.67;;;4.47;;
17592;SDS011;8915;51.760;14.300;2023-12-20T08:40:06;11.97;;;4.53;;
17592;SDS011;8915;51.760;14.300;2023-12-20T08:42:33;16.10;;;5.00;;
17592;SDS011;8915;51.760;14.300;2023-12-20T08:45:00;8.27;;;5.00;;
17592;SDS011;8915;51.760;14.300;2023-12-20T08:47:26;14.13;;;4.57;;
17592;SDS011;8915;51.760;14.300;2023-12-20T08:49:53;12.73;;;5.53;;
17592;SDS011;8915;51.760;14.300;2023-12-20T08:52:21;8.87;;;5.00;;
17592;SDS011;8915;51.760;14.300;2023-12-20T08:54:48;10.37;;;5.03;;
17592;SDS011;8915;51.760;14.300;2023-12-20T08:57:18;10.80;;;5.00;;
17592;SDS011;8915;51.760;14.300;2023-12-20T08:59:44;7.00;;;4.57;;
17592;SDS011;8915;51.760;14.300;2023-12-20T09:02:10;9.13;;;4.27;;
17592;SDS011;8915;51.760;14.300;2023-12-20T09:04:37;9.73;;;4.63;;
17592;SDS011;8915;51.760;14.300;2023-12-20T09:07:04;8.03;;;4.10;;
17592;SDS011;8915;51.760;14.300;2023-12-20T09:09:30;7.83;;;4.10;;
17592;SDS011;8915;51.760;14.300;2023-12-20T09:11:57;9.73;;;4.73;;
17592;SDS011;8915;51.760;14.300;2023-12-20T09:14:25;12.70;;;4.63;;
17592;SDS011;8915;51.760;14.300;2023-12-20T09:16:51;12.43;;;4.63;;
17592;SDS011;8915;51.760;14.300;2023-12-20T09:19:20;8.50;;;4.10;;
17592;SDS011;8915;51.760;14.300;2023-12-20T09:21:47;9.63;;;4.23;;
17592;SDS011;8915;51.760;14.300;2023-12-20T09:24:13;8.23;;;4.03;;
17592;SDS011;8915;51.760;14.300;2023-12-20T09:26:40;9.40;;;4.17;;
17592;SDS011;8915;51.760;14.300;2023-12-20T09:29:07;8.17;;;3.83;;
17592;SDS011;8915;51.760;14.300;2023-12-20T09:31:37;10.27;;;4.73;;
17592;SDS011;8915;51.760;14.300;2023-12-20T09:34:03;7.50;;;4.50;;
17592;SDS011;8915;51.760;14.300;2023-12-20T09:36:30;8.10;;;3.10;;
17592;SDS011;8915;51.760;14.300;2023-12-20T09:39:01;5.17;;;3.10;;
17592;SDS011;8915;51.760;14.300;2023-12-20T09:41:27;5.97;;;2.97;;
17592;SDS011;8915;51.760;14.300;2023-12-20T09:43:57;4.17;;;2.83;;
17592;SDS011;8915;51.760;14.300;2023-12-20T09:46:28;5.80;;;3.03;;
17592;SDS011;8915;51.760;14.300;2023-12-20T09:49:00;6.27;;;3.03;;
17592;SDS011;8915;51.760;14.300;2023-12-20T09:51:27;10.50;;;3.67;;
17592;SDS011;8915;51.760;14.300;2023-12-20T09:53:55;6.73;;;2.97;;
17592;SDS011;8915;51.760;14.300;2023-12-20T09:56:23;5.80;;;3.27;;
17592;SDS011;8915;51.760;14.300;2023-12-20T09:58:50;9.00;;;3.33;;
17592;SDS011;8915;51.760;14.300;2023-12-20T10:01:17;6.47;;;3.33;;
17592;SDS011;8915;51.760;14.300;2023-12-20T10:03:44;4.93;;;3.30;;
17592;SDS011;8915;51.760;14.300;2023-12-20T10:06:12;6.10;;;3.37;;
17592;SDS011;8915;51.760;14.300;2023-12-20T10:08:39;7.47;;;3.70;;
17592;SDS011;8915;51.760;14.300;2023-12-20T10:11:05;9.10;;;4.30;;
17592;SDS011;8915;51.760;14.300;2023-12-20T10:13:32;4.87;;;3.07;;
17592;SDS011;8915;51.760;14.300;2023-12-20T10:15:59;5.60;;;2.77;;
17592;SDS011;8915;51.760;14.300;2023-12-20T10:18:25;5.20;;;2.80;;
17592;SDS011;8915;51.760;14.300;2023-12-20T10:20:54;7.57;;;2.27;;
17592;SDS011;8915;51.760;14.300;2023-12-20T10:23:22;4.13;;;2.20;;
17592;SDS011;8915;51.760;14.300;2023-12-20T10:25:58;5.37;;;2.23;;
17592;SDS011;8915;51.760;14.300;2023-12-20T10:28:25;4.17;;;2.30;;
17592;SDS011;8915;51.760;14.300;2023-12-20T10:30:52;9.90;;;1.93;;
17592;SDS011;8915;51.760;14.300;2023-12-20T10:33:23;6.30;;;2.40;;
17592;SDS011;8915;51.760;14.300;2023-12-20T10:35:50;7.70;;;3.00;;
17592;SDS011;8915;51.760;14.300;2023-12-20T10:38:17;3.63;;;2.30;;
17592;SDS011;8915;51.760;14.300;2023-12-20T10:40:46;4.23;;;1.73;;
17592;SDS011;8915;51.760;14.300;2023-12-20T10:43:12;7.07;;;1.90;;
17592;SDS011;8915;51.760;14.300;2023-12-20T10:45:39;4.30;;;1.87;;
17592;SDS011;8915;51.760;14.300;2023-12-20T10:48:07;2.83;;;1.60;;
17592;SDS011;8915;51.760;14.300;2023-12-20T10:50:36;3.77;;;1.60;;
17592;SDS011;8915;51.760;14.300;2023-12-20T10:53:05;3.87;;;1.73;;
17592;SDS011;8915;51.760;14.300;2023-12-20T10:55:32;6.33;;;1.67;;
17592;SDS011;8915;51.760;14.300;2023-12-20T10:58:01;5.90;;;1.30;;
17592;SDS011;8915;51.760;14.300;2023-12-20T11:00:32;4.27;;;1.70;;
17592;SDS011;8915;51.760;14.300;2023-12-20T11:03:01;7.53;;;1.60;;
17592;SDS011;8915;51.760;14.300;2023-12-20T11:05:31;1.40;;;1.27;;
17592;SDS011;8915;51.760;14.300;2023-12-20T11:08:02;2.13;;;1.10;;
17592;SDS011;8915;51.760;14.300;2023-12-20T11:10:36;5.20;;;1.60;;
17592;SDS011;8915;51.760;14.300;2023-12-20T11:13:12;13.27;;;5.13;;
17592;SDS011;8915;51.760;14.300;2023-12-20T11:15:43;2.80;;;1.40;;
17592;SDS011;8915;51.760;14.300;2023-12-20T11:18:10;4.07;;;1.60;;
17592;SDS011;8915;51.760;14.300;2023-12-20T11:20:37;4.97;;;1.57;;
17592;SDS011;8915;51.760;14.300;2023-12-20T11:23:05;6.17;;;2.10;;
17592;SDS011;8915;51.760;14.300;2023-12-20T11:25:46;3.27;;;1.50;;
17592;SDS011;8915;51.760;14.300;2023-12-20T11:28:15;3.30;;;1.40;;
17592;SDS011;8915;51.760;14.300;2023-12-20T11:30:46;3.80;;;1.27;;
17592;SDS011;8915;51.760;14.300;2023-12-20T11:33:14;7.40;;;1.23;;
17592;SDS011;8915;51.760;14.300;2023-12-20T11:35:41;6.77;;;1.47;;
17592;SDS011;8915;51.760;14.300;2023-12-20T11:38:07;2.77;;;1.30;;
17592;SDS011;8915;51.760;14.300;2023-12-20T11:40:34;2.10;;;1.30;;
17592;SDS011;8915;51.760;14.300;2023-12-20T11:43:01;3.47;;;1.20;;
17592;SDS011;8915;51.760;14.300;2023-12-20T11:45:30;3.53;;;1.27;;
17592;SDS011;8915;51.760;14.300;2023-12-20T11:47:57;7.67;;;1.50;;
17592;SDS011;8915;51.760;14.300;2023-12-20T11:50:24;6.43;;;3.07;;
17592;SDS011;8915;51.760;14.300;2023-12-20T11:52:51;7.87;;;1.50;;
17592;SDS011;8915;51.760;14.300;2023-12-20T11:55:18;3.23;;;1.27;;
17592;SDS011;8915;51.760;14.300;2023-12-20T11:57:44;2.80;;;1.13;;
17592;SDS011;8915;51.760;14.300;2023-12-20T12:00:12;3.47;;;1.20;;
17592;SDS011;8915;51.760;14.300;2023-12-20T12:02:41;6.07;;;1.70;;
17592;SDS011;8915;51.760;14.300;2023-12-20T12:05:08;3.77;;;1.40;;
17592;SDS011;8915;51.760;14.300;2023-12-20T12:07:34;7.70;;;1.60;;
17592;SDS011;8915;51.760;14.300;2023-12-20T12:10:01;5.47;;;1.50;;
17592;SDS011;8915;51.760;14.300;2023-12-20T12:12:28;4.57;;;1.50;;
17592;SDS011;8915;51.760;14.300;2023-12-20T12:14:56;4.17;;;1.33;;
17592;SDS011;8915;51.760;14.300;2023-12-20T12:17:22;3.20;;;1.40;;
17592;SDS011;8915;51.760;14.300;2023-12-20T12:19:50;5.07;;;1.50;;
17592;SDS011;8915;51.760;14.300;2023-12-20T12:22:16;3.73;;;1.43;;
17592;SDS011;8915;51.760;14.300;2023-12-20T12:24:45;7.23;;;1.67;;
17592;SDS011;8915;51.760;14.300;2023-12-20T12:27:12;3.47;;;1.10;;
17592;SDS011;8915;51.760;14.300;2023-12-20T12:29:39;3.23;;;1.30;;
17592;SDS011;8915;51.760;14.300;2023-12-20T12:32:06;4.33;;;1.60;;
17592;SDS011;8915;51.760;14.300;2023-12-20T12:34:33;4.90;;;1.73;;
17592;SDS011;8915;51.760;14.300;2023-12-20T12:37:01;6.70;;;1.50;;
17592;SDS011;8915;51.760;14.300;2023-12-20T12:39:29;2.37;;;1.47;;
17592;SDS011;8915;51.760;14.300;2023-12-20T12:41:56;4.70;;;1.40;;
17592;SDS011;8915;51.760;14.300;2023-12-20T12:44:23;4.43;;;1.67;;
17592;SDS011;8915;51.760;14.300;2023-12-20T12:46:50;4.40;;;1.60;;
17592;SDS011;8915;51.760;14.300;2023-12-20T12:49:18;3.20;;;1.57;;
17592;SDS011;8915;51.760;14.300;2023-12-20T12:51:44;4.03;;;1.57;;
17592;SDS011;8915;51.760;14.300;2023-12-20T12:54:12;6.47;;;2.27;;
17592;SDS011;8915;51.760;14.300;2023-12-20T12:56:41;3.20;;;1.30;;
17592;SDS011;8915;51.760;14.300;2023-12-20T12:59:07;3.13;;;1.37;;
17592;SDS011;8915;51.760;14.300;2023-12-20T13:01:34;5.13;;;1.53;;
17592;SDS011;8915;51.760;14.300;2023-12-20T13:04:01;2.67;;;1.20;;
17592;SDS011;8915;51.760;14.300;2023-12-20T13:06:28;3.07;;;2.00;;
17592;SDS011;8915;51.760;14.300;2023-12-20T13:08:55;4.83;;;1.50;;
17592;SDS011;8915;51.760;14.300;2023-12-20T13:11:22;2.97;;;1.63;;
17592;SDS011;8915;51.760;14.300;2023-12-20T13:13:50;3.67;;;1.20;;
17592;SDS011;8915;51.760;14.300;2023-12-20T13:16:16;3.90;;;1.47;;
17592;SDS011;8915;51.760;14.300;2023-12-20T13:18:42;6.47;;;1.63;;
17592;SDS011;8915;51.760;14.300;2023-12-20T13:21:09;3.10;;;1.50;;
17592;SDS011;8915;51.760;14.300;2023-12-20T13:23:35;5.30;;;1.83;;
17592;SDS011;8915;51.760;14.300;2023-12-20T13:26:02;3.63;;;1.60;;
17592;SDS011;8915;51.760;14.300;2023-12-20T13:28:30;6.17;;;1.83;;
17592;SDS011;8915;51.760;14.300;2023-12-20T13:30:56;5.43;;;1.93;;
17592;SDS011;8915;51.760;14.300;2023-12-20T13:33:22;2.97;;;1.30;;
17592;SDS011;8915;51.760;14.300;2023-12-20T13:35:49;4.53;;;1.43;;
17592;SDS011;8915;51.760;14.300;2023-12-20T13:38:15;2.07;;;1.40;;
17592;SDS011;8915;51.760;14.300;2023-12-20T13:40:42;4.20;;;1.70;;
17592;SDS011;8915;51.760;14.300;2023-12-20T13:43:08;3.57;;;1.63;;
17592;SDS011;8915;51.760;14.300;2023-12-20T13:45:36;6.50;;;2.00;;
17592;SDS011;8915;51.760;14.300;2023-12-20T13:48:03;1.90;;;1.33;;
17592;SDS011;8915;51.760;14.300;2023-12-20T13:50:30;3.00;;;1.60;;
17592;SDS011;8915;51.760;14.300;2023-12-20T13:52:56;2.73;;;1.30;;
17592;SDS011;8915;51.760;14.300;2023-12-20T13:55:23;5.40;;;1.50;;
17592;SDS011;8915;51.760;14.300;2023-12-20T13:57:52;2.50;;;1.30;;
17592;SDS011;8915;51.760;14.300;2023-12-20T14:00:18;5.33;;;1.67;;
17592;SDS011;8915;51.760;14.300;2023-12-20T14:02:46;2.93;;;1.03;;
17592;SDS011;8915;51.760;14.300;2023-12-20T14:05:13;5.10;;;1.40;;
17592;SDS011;8915;51.760;14.300;2023-12-20T14:07:42;3.23;;;1.30;;
17592;SDS011;8915;51.760;14.300;2023-12-20T14:10:09;3.40;;;1.60;;
17592;SDS011;8915;51.760;14.300;2023-12-20T14:12:37;4.40;;;1.60;;
17592;SDS011;8915;51.760;14.300;2023-12-20T14:15:04;2.80;;;1.30;;
17592;SDS011;8915;51.760;14.300;2023-12-20T14:17:34;5.33;;;1.70;;
17592;SDS011;8915;51.760;14.300;2023-12-20T14:20:02;4.13;;;1.40;;
17592;SDS011;8915;51.760;14.300;2023-12-20T14:22:30;3.23;;;1.17;;
17592;SDS011;8915;51.760;14.300;2023-12-20T14:24:56;3.70;;;1.60;;
17592;SDS011;8915;51.760;14.300;2023-12-20T14:27:23;4.83;;;1.47;;
17592;SDS011;8915;51.760;14.300;2023-12-20T14:29:52;3.33;;;1.33;;
17592;SDS011;8915;51.760;14.300;2023-12-20T14:32:19;1.23;;;1.13;;
17592;SDS011;8915;51.760;14.300;2023-12-20T14:34:45;3.43;;;1.50;;
17592;SDS011;8915;51.760;14.300;2023-12-20T14:37:13;2.77;;;1.50;;
17592;SDS011;8915;51.760;14.300;2023-12-20T14:39:41;2.67;;;1.00;;
17592;SDS011;8915;51.760;14.300;2023-12-20T14:42:07;4.33;;;1.37;;
17592;SDS011;8915;51.760;14.300;2023-12-20T14:44:37;2.83;;;1.73;;
17592;SDS011;8915;51.760;14.300;2023-12-20T14:47:03;2.63;;;1.13;;